Time;durP1;ratioP1;P1;durP2;ratioP2;P2;SDS_P1;SDS_P2;PMS_P1;PMS_P2;Temp;Humidity;BMP_temperature;BMP_pressure;BME280_temperature;BME280_humidity;BME280_pressure;Samples;Min_cycle;Max_cycle;Signal;HPM_P1;HPM_P2
2024/01/13 00:03:01;;;;;;;20.30;10.70;;;;;;;0.03;100.00;100667.65;52512;1260;1097153;-81
2024/01/13 00:05:47;;;;;;;20.90;11.40;;;;;;;0.05;100.00;100669.46;52460;1257;1098219;-82
2024/01/13 00:08:32;;;;;;;19.40;11.00;;;;;;;0.06;100.00;100663.75;52450;1260;1097183;-81
2024/01/13 00:11:18;;;;;;;20.40;11.10;;;;;;;0.06;100.00;100662.71;52415;1257;1097457;-81
2024/01/13 00:14:04;;;;;;;21.20;11.50;;;;;;;0.07;100.00;100659.64;52198;1271;1098044;-80
2024/01/13 00:16:50;;;;;;;18.60;11.30;;;;;;;0.07;100.00;100655.10;52264;1264;1097464;-79
2024/01/13 00:19:36;;;;;;;21.40;11.70;;;;;;;0.08;100.00;100653.77;52314;1264;1097508;-81
2024/01/13 00:22:21;;;;;;;17.40;9.90;;;;;;;0.08;100.00;100653.60;52688;1260;1097222;-81
2024/01/13 00:25:07;;;;;;;20.80;11.50;;;;;;;0.08;100.00;100645.69;52640;1257;1096762;-81
2024/01/13 00:27:53;;;;;;;17.20;9.80;;;;;;;0.10;100.00;100637.81;52621;1267;1097340;-82
2024/01/13 00:30:39;;;;;;;17.80;11.20;;;;;;;0.09;100.00;100642.97;52738;1260;1097164;-81
2024/01/13 00:33:25;;;;;;;17.40;10.90;;;;;;;0.09;100.00;100636.98;52486;1263;1097131;-81
2024/01/13 00:36:10;;;;;;;20.50;10.90;;;;;;;0.11;100.00;100635.14;52463;1262;1098370;-81
2024/01/13 00:38:56;;;;;;;18.70;10.80;;;;;;;0.11;100.00;100633.66;52718;1264;1097820;-80
2024/01/13 00:41:41;;;;;;;19.70;11.50;;;;;;;0.11;100.00;100631.05;52578;1260;1097211;-81
2024/01/13 00:44:27;;;;;;;16.40;9.70;;;;;;;0.11;100.00;100630.17;52489;1263;1096990;-82
2024/01/13 00:47:13;;;;;;;16.40;10.20;;;;;;;0.12;100.00;100633.41;52541;1257;1097611;-82
2024/01/13 00:49:58;;;;;;;19.60;10.30;;;;;;;0.13;100.00;100636.54;52594;1263;1096879;-81
2024/01/13 00:52:44;;;;;;;18.90;10.00;;;;;;;0.13;100.00;100636.83;52455;1257;1097938;-81
2024/01/13 00:55:30;;;;;;;15.30;9.60;;;;;;;0.15;100.00;100629.52;52562;1261;1098272;-80
2024/01/13 00:58:16;;;;;;;16.50;9.30;;;;;;;0.15;100.00;100629.15;52642;1264;1098352;-81
2024/01/13 01:01:03;;;;;;;23.20;12.90;;;;;;;0.16;100.00;100625.34;52535;1260;1098406;-80
2024/01/13 01:03:48;;;;;;;14.80;9.10;;;;;;;0.18;100.00;100625.02;52528;1261;1097785;-81
2024/01/13 01:06:34;;;;;;;16.50;9.90;;;;;;;0.20;100.00;100618.77;52507;1260;1097331;-81
2024/01/13 01:09:21;;;;;;;15.50;9.10;;;;;;;0.20;100.00;100614.86;52254;1260;1097602;-80
2024/01/13 01:12:06;;;;;;;18.00;10.40;;;;;;;0.20;100.00;100618.90;52220;1263;1098560;-79
2024/01/13 01:14:52;;;;;;;13.20;7.80;;;;;;;0.21;100.00;100627.46;52362;1263;1096781;-81
2024/01/13 01:17:38;;;;;;;17.70;8.70;;;;;;;0.22;100.00;100623.14;52498;1262;1098452;-81
2024/01/13 01:20:24;;;;;;;15.50;8.70;;;;;;;0.23;100.00;100623.25;52581;1257;1097069;-79
2024/01/13 01:23:10;;;;;;;13.30;8.10;;;;;;;0.23;100.00;100622.20;52641;1261;1097149;-79
2024/01/13 01:25:56;;;;;;;11.30;7.80;;;;;;;0.22;100.00;100619.79;52189;1257;1097634;-80
2024/01/13 01:28:41;;;;;;;12.70;8.50;;;;;;;0.25;100.00;100624.52;52446;1257;1097923;-81
2024/01/13 01:31:27;;;;;;;14.30;8.10;;;;;;;0.24;100.00;100624.35;52336;1260;1098276;-81
2024/01/13 01:34:13;;;;;;;12.60;7.30;;;;;;;0.25;100.00;100617.65;52274;1261;1097165;-81
2024/01/13 01:36:58;;;;;;;13.80;8.20;;;;;;;0.26;100.00;100612.84;52230;1264;1097389;-80
2024/01/13 01:39:44;;;;;;;13.10;8.00;;;;;;;0.26;100.00;100613.83;52534;1257;1096943;-80
2024/01/13 01:42:30;;;;;;;14.20;7.30;;;;;;;0.28;100.00;100612.48;52433;1261;1098230;-81
2024/01/13 01:45:17;;;;;;;13.50;7.90;;;;;;;0.29;100.00;100610.11;52285;1272;1096776;-81
2024/01/13 01:48:07;;;;;;;12.80;7.50;;;;;;;0.30;100.00;100603.71;52261;1261;1097283;-80
2024/01/13 01:50:53;;;;;;;13.80;7.20;;;;;;;0.30;100.00;100605.98;52392;1258;1098332;-81
2024/01/13 01:53:40;;;;;;;12.20;7.70;;;;;;;0.30;100.00;100605.29;52470;1261;1097047;-82
2024/01/13 01:56:34;;;;;;;12.90;7.70;;;;;;;0.31;100.00;100597.98;52522;1263;1098781;-79
2024/01/13 01:59:20;;;;;;;14.00;7.70;;;;;;;0.31;100.00;100589.40;52578;1257;1098090;-80
2024/01/13 02:02:07;;;;;;;13.20;8.00;;;;;;;0.31;100.00;100589.00;52583;1260;1097137;-80
2024/01/13 02:04:55;;;;;;;15.00;10.60;;;;;;;0.32;100.00;100589.50;52213;1260;1099692;-80
2024/01/13 02:07:41;;;;;;;17.20;8.30;;;;;;;0.31;100.00;100591.48;52275;1258;1098270;-81
2024/01/13 02:10:28;;;;;;;15.80;9.70;;;;;;;0.31;100.00;100595.02;52549;1257;1096682;-80
2024/01/13 02:13:13;;;;;;;16.10;9.80;;;;;;;0.31;100.00;100597.12;52444;1260;1096575;-81
2024/01/13 02:16:00;;;;;;;18.30;10.10;;;;;;;0.32;100.00;100596.73;52447;1260;1098640;-80
2024/01/13 02:18:45;;;;;;;15.80;9.60;;;;;;;0.33;100.00;100595.73;52293;1261;1097387;-79
2024/01/13 02:21:35;;;;;;;17.10;9.90;;;;;;;0.34;100.00;100593.09;52540;1257;1097324;-81
2024/01/13 02:24:21;;;;;;;16.80;9.00;;;;;;;0.35;100.00;100588.41;52632;1260;1097574;-81
2024/01/13 02:27:06;;;;;;;15.90;9.10;;;;;;;0.35;100.00;100585.06;52548;1261;1097157;-81
2024/01/13 02:29:52;;;;;;;17.20;10.20;;;;;;;0.36;100.00;100582.54;52529;1258;1096816;-81
2024/01/13 02:32:37;;;;;;;15.70;10.10;;;;;;;0.36;100.00;100582.87;52602;1260;1097637;-80
2024/01/13 02:35:23;;;;;;;20.90;10.00;;;;;;;0.34;100.00;100574.55;52739;1260;1096563;-81
2024/01/13 02:38:09;;;;;;;19.70;11.70;;;;;;;0.35;100.00;100571.38;52308;1260;1096781;-81
2024/01/13 02:40:55;;;;;;;13.90;10.30;;;;;;;0.35;100.00;100569.90;52337;1272;1097857;-80
2024/01/13 02:43:40;;;;;;;17.90;10.30;;;;;;;0.36;100.00;100563.52;52682;1257;1096567;-82
2024/01/13 02:46:26;;;;;;;14.60;10.40;;;;;;;0.36;100.00;100559.35;52613;1257;1097040;-81
2024/01/13 02:49:12;;;;;;;19.40;10.30;;;;;;;0.36;100.00;100554.60;52629;1260;1097188;-81
2024/01/13 02:51:58;;;;;;;17.30;10.50;;;;;;;0.36;100.00;100556.73;52642;1263;1097596;-80
2024/01/13 02:54:44;;;;;;;16.90;9.10;;;;;;;0.36;100.00;100551.56;52521;1260;1097020;-81
2024/01/13 02:57:30;;;;;;;18.60;10.30;;;;;;;0.36;100.00;100548.58;52536;1260;1098014;-81
2024/01/13 03:00:17;;;;;;;16.80;10.10;;;;;;;0.36;100.00;100551.17;52759;1257;1097298;-80
2024/01/13 03:03:02;;;;;;;16.00;10.00;;;;;;;0.38;100.00;100550.21;52395;1261;1096760;-80
2024/01/13 03:05:48;;;;;;;15.50;9.10;;;;;;;0.38;100.00;100551.92;52336;1260;1097600;-80
2024/01/13 03:08:34;;;;;;;16.00;10.40;;;;;;;0.38;100.00;100551.61;52554;1257;1097282;-80
2024/01/13 03:11:20;;;;;;;20.00;9.90;;;;;;;0.37;100.00;100547.10;52544;1258;1097453;-80
2024/01/13 03:14:06;;;;;;;18.20;10.20;;;;;;;0.37;100.00;100549.05;52491;1257;1098021;-81
2024/01/13 03:16:52;;;;;;;17.40;10.40;;;;;;;0.38;100.00;100546.67;52725;1260;1097537;-81
2024/01/13 03:19:38;;;;;;;17.60;10.20;;;;;;;0.38;100.00;100551.61;52603;1258;1106615;-81
2024/01/13 03:22:23;;;;;;;18.50;10.60;;;;;;;0.36;100.00;100551.23;52631;1260;1098467;-81
2024/01/13 03:25:09;;;;;;;17.30;10.80;;;;;;;0.35;100.00;100543.90;52508;1260;1097227;-81
2024/01/13 03:27:55;;;;;;;18.80;11.20;;;;;;;0.37;100.00;100537.98;52672;1257;1097385;-81
2024/01/13 03:30:40;;;;;;;18.80;11.10;;;;;;;0.37;100.00;100537.59;52518;1260;1097223;-80
2024/01/13 03:33:26;;;;;;;18.40;10.80;;;;;;;0.38;100.00;100537.21;52505;1258;1097878;-81
2024/01/13 03:36:12;;;;;;;20.00;12.90;;;;;;;0.39;100.00;100539.55;52605;1257;1096862;-80
2024/01/13 03:38:59;;;;;;;19.20;10.60;;;;;;;0.40;100.00;100535.29;52565;1263;1097102;-81
2024/01/13 03:41:45;;;;;;;19.30;10.90;;;;;;;0.40;100.00;100529.98;52685;1260;1097077;-81
2024/01/13 03:44:31;;;;;;;20.90;11.60;;;;;;;0.39;100.00;100525.65;52531;1262;1097465;-81
2024/01/13 03:47:17;;;;;;;18.20;11.50;;;;;;;0.38;100.00;100519.98;52637;1257;1097887;-81
2024/01/13 03:50:02;;;;;;;18.60;11.10;;;;;;;0.38;100.00;100516.85;52593;1257;1098185;-81
2024/01/13 03:52:48;;;;;;;17.70;11.20;;;;;;;0.37;100.00;100510.96;52674;1260;1097912;-81
2024/01/13 03:55:33;;;;;;;15.80;10.30;;;;;;;0.35;100.00;100513.35;52770;1260;1098924;-80
2024/01/13 03:58:19;;;;;;;20.30;11.30;;;;;;;0.36;100.00;100516.11;52500;1257;1097183;-80
2024/01/13 04:01:05;;;;;;;20.40;10.80;;;;;;;0.36;100.00;100512.77;52550;1257;1096657;-81
2024/01/13 04:03:50;;;;;;;20.10;11.90;;;;;;;0.36;100.00;100508.92;52669;1261;1097534;-81
2024/01/13 04:06:40;;;;;;;21.10;11.50;;;;;;;0.36;100.00;100509.96;52542;1257;1097903;-81
2024/01/13 04:09:25;;;;;;;20.80;10.90;;;;;;;0.36;100.00;100516.62;52615;1257;1097421;-81
2024/01/13 04:12:11;;;;;;;19.90;11.70;;;;;;;0.35;100.00;100510.56;52614;1257;1099379;-81
2024/01/13 04:14:57;;;;;;;23.30;12.90;;;;;;;0.35;100.00;100506.34;52683;1260;1097595;-81
2024/01/13 04:17:42;;;;;;;20.10;11.70;;;;;;;0.36;100.00;100513.80;52543;1260;1096677;-81
2024/01/13 04:20:28;;;;;;;18.40;10.40;;;;;;;0.37;100.00;100519.35;52400;1260;1098010;-81
2024/01/13 04:23:14;;;;;;;21.50;11.70;;;;;;;0.36;100.00;100519.96;52588;1258;1096716;-81
2024/01/13 04:26:00;;;;;;;20.00;11.30;;;;;;;0.35;100.00;100520.43;52656;1257;1097200;-80
2024/01/13 04:28:46;;;;;;;20.20;12.60;;;;;;;0.34;100.00;100516.13;52643;1260;1097154;-81
2024/01/13 04:31:31;;;;;;;24.40;11.90;;;;;;;0.33;100.00;100518.29;52516;1260;1097949;-81
2024/01/13 04:34:17;;;;;;;17.60;10.40;;;;;;;0.31;100.00;100514.55;52503;1260;1097986;-80
2024/01/13 04:37:03;;;;;;;20.00;10.30;;;;;;;0.31;100.00;100515.33;52613;1255;1097427;-81
2024/01/13 04:39:49;;;;;;;15.80;10.00;;;;;;;0.29;100.00;100512.65;52576;1261;1097047;-81
2024/01/13 04:42:35;;;;;;;18.90;11.00;;;;;;;0.28;100.00;100509.79;52546;1260;1097768;-81
2024/01/13 04:45:21;;;;;;;18.70;10.50;;;;;;;0.24;100.00;100508.33;52530;1260;1098332;-81
2024/01/13 04:48:07;;;;;;;17.10;10.20;;;;;;;0.21;100.00;100505.52;52599;1257;1097360;-81
2024/01/13 04:50:53;;;;;;;17.30;10.10;;;;;;;0.19;100.00;100513.95;52559;1257;1096935;-81
2024/01/13 04:53:39;;;;;;;20.60;10.80;;;;;;;0.18;100.00;100508.14;52616;1256;1096809;-80
2024/01/13 04:56:25;;;;;;;20.90;10.80;;;;;;;0.17;100.00;100504.00;52607;1259;1097193;-81
2024/01/13 04:59:11;;;;;;;18.80;10.70;;;;;;;0.16;100.00;100501.77;52530;1263;1098232;-80
2024/01/13 05:01:56;;;;;;;16.60;9.90;;;;;;;0.15;100.00;100504.48;52608;1260;1097371;-81
2024/01/13 05:04:42;;;;;;;17.10;10.40;;;;;;;0.13;100.00;100502.77;52527;1261;1096805;-81
2024/01/13 05:07:27;;;;;;;21.80;11.70;;;;;;;0.11;100.00;100505.52;52592;1261;1097201;-80
2024/01/13 05:10:14;;;;;;;19.60;12.00;;;;;;;0.09;100.00;100501.30;52629;1256;1097758;-81
2024/01/13 05:13:00;;;;;;;21.70;11.50;;;;;;;0.07;100.00;100510.94;52628;1261;1097321;-81
2024/01/13 05:15:45;;;;;;;19.80;11.20;;;;;;;0.06;100.00;100509.09;52592;1257;1097826;-81
2024/01/13 05:18:31;;;;;;;20.40;10.90;;;;;;;0.08;100.00;100508.39;52534;1261;1097298;-81
2024/01/13 05:21:17;;;;;;;18.20;11.00;;;;;;;0.08;100.00;100516.15;52555;1261;1097501;-81
2024/01/13 05:24:02;;;;;;;20.50;11.90;;;;;;;0.06;100.00;100513.59;52617;1257;1096785;-81
2024/01/13 05:26:48;;;;;;;21.10;11.10;;;;;;;0.07;100.00;100521.30;52574;1257;1096709;-82
2024/01/13 05:29:34;;;;;;;24.50;10.90;;;;;;;0.07;100.00;100520.75;52450;1256;1096900;-81
2024/01/13 05:32:19;;;;;;;19.20;10.90;;;;;;;0.10;100.00;100519.70;52652;1260;1097335;-81
2024/01/13 05:35:05;;;;;;;23.10;10.80;;;;;;;0.10;100.00;100520.35;52754;1257;1105688;-81
2024/01/13 05:37:51;;;;;;;20.60;11.40;;;;;;;0.08;100.00;100525.95;52551;1263;1097481;-82
2024/01/13 05:40:40;;;;;;;19.90;9.70;;;;;;;0.08;100.00;100515.95;52635;1260;1097271;-80
2024/01/13 05:43:26;;;;;;;21.00;11.20;;;;;;;0.09;100.00;100514.27;52463;1260;1097468;-81
2024/01/13 05:46:12;;;;;;;18.90;10.90;;;;;;;0.11;100.00;100522.42;52531;1260;1097201;-81
2024/01/13 05:49:00;;;;;;;18.20;9.60;;;;;;;0.11;100.00;100519.96;52539;1260;1100577;-81
2024/01/13 05:51:45;;;;;;;18.90;10.90;;;;;;;0.10;100.00;100520.52;52659;1257;1096643;-82
2024/01/13 05:54:31;;;;;;;21.00;11.40;;;;;;;0.12;100.00;100517.91;52665;1260;1096724;-81
2024/01/13 05:57:17;;;;;;;23.50;11.30;;;;;;;0.12;100.00;100513.33;52482;1257;1097184;-82
2024/01/13 06:00:03;;;;;;;23.50;10.70;;;;;;;0.12;100.00;100512.13;52450;1259;1097384;-81
2024/01/13 06:02:53;;;;;;;20.50;10.40;;;;;;;0.11;100.00;100508.00;52525;1260;1097938;-81
2024/01/13 06:05:39;;;;;;;22.00;11.70;;;;;;;0.09;100.00;100504.61;52618;1260;1097844;-81
2024/01/13 06:08:25;;;;;;;20.30;10.80;;;;;;;0.08;100.00;100502.80;52746;1257;1096896;-80
2024/01/13 06:11:10;;;;;;;21.60;11.60;;;;;;;0.08;100.00;100504.33;52240;1258;1097464;-81
2024/01/13 06:13:56;;;;;;;21.80;11.70;;;;;;;0.10;100.00;100506.48;52284;1257;1097830;-81
2024/01/13 06:16:42;;;;;;;19.10;11.20;;;;;;;0.11;100.00;100503.77;52427;1257;1097175;-81
2024/01/13 06:19:28;;;;;;;22.40;12.00;;;;;;;0.13;100.00;100502.20;52122;1260;1098187;-81
2024/01/13 06:22:13;;;;;;;24.80;11.70;;;;;;;0.14;100.00;100514.23;52506;1260;1097845;-80
2024/01/13 06:24:59;;;;;;;21.80;10.90;;;;;;;0.16;100.00;100509.84;52555;1260;1097122;-81
2024/01/13 06:27:45;;;;;;;25.40;12.20;;;;;;;0.17;100.00;100504.81;52613;1262;1097337;-81
2024/01/13 06:30:31;;;;;;;20.80;11.70;;;;;;;0.19;100.00;100512.04;52360;1260;1097727;-80
2024/01/13 06:33:16;;;;;;;27.60;12.90;;;;;;;0.21;100.00;100508.95;52340;1258;1097561;-79
2024/01/13 06:36:02;;;;;;;23.90;13.00;;;;;;;0.20;100.00;100509.36;52484;1260;1096814;-79
2024/01/13 06:38:47;;;;;;;20.20;11.30;;;;;;;0.20;100.00;100512.16;52532;1260;1097366;-80
2024/01/13 06:41:33;;;;;;;21.80;12.60;;;;;;;0.22;100.00;100513.61;52511;1260;1098003;-80
2024/01/13 06:44:19;;;;;;;27.60;13.20;;;;;;;0.21;100.00;100512.59;52227;1256;1096593;-81
2024/01/13 06:47:05;;;;;;;26.10;13.20;;;;;;;0.21;100.00;100523.15;52303;1257;1096812;-81
2024/01/13 06:49:50;;;;;;;27.30;13.30;;;;;;;0.22;100.00;100526.27;52486;1260;1097958;-79
2024/01/13 06:52:38;;;;;;;32.30;14.10;;;;;;;0.22;100.00;100523.77;52523;1260;1097221;-80
2024/01/13 06:55:24;;;;;;;24.90;12.90;;;;;;;0.22;100.00;100526.52;52479;1261;1098059;-80
2024/01/13 06:58:10;;;;;;;28.10;14.30;;;;;;;0.25;100.00;100527.77;52363;1256;1098634;-81
2024/01/13 07:00:56;;;;;;;27.80;13.30;;;;;;;0.24;100.00;100530.27;52106;1257;1096606;-80
2024/01/13 07:03:42;;;;;;;24.50;12.70;;;;;;;0.23;100.00;100532.12;52477;1260;1097574;-80
2024/01/13 07:06:28;;;;;;;34.00;14.60;;;;;;;0.23;100.00;100533.85;52483;1260;1097059;-81
2024/01/13 07:09:17;;;;;;;26.40;14.90;;;;;;;0.23;100.00;100538.23;52435;1257;1096744;-80
2024/01/13 07:12:03;;;;;;;29.40;13.10;;;;;;;0.24;100.00;100536.58;52478;1257;1096966;-81
2024/01/13 07:14:48;;;;;;;26.20;13.60;;;;;;;0.25;100.00;100534.44;52575;1258;1097201;-81
2024/01/13 07:17:34;;;;;;;24.80;12.00;;;;;;;0.25;100.00;100535.08;52666;1255;1097182;-81
2024/01/13 07:20:20;;;;;;;30.40;14.20;;;;;;;0.28;100.00;100533.85;52634;1260;1096843;-81
2024/01/13 07:23:06;;;;;;;28.60;13.50;;;;;;;0.28;100.00;100535.36;52604;1256;1097435;-81
2024/01/13 07:25:52;;;;;;;25.70;12.90;;;;;;;0.29;100.00;100534.38;52650;1260;1097318;-81
2024/01/13 07:28:38;;;;;;;30.10;14.50;;;;;;;0.31;100.00;100536.70;52583;1257;1098582;-81
2024/01/13 07:31:24;;;;;;;31.80;16.20;;;;;;;0.31;100.00;100531.27;52495;1257;1098081;-81
2024/01/13 07:34:09;;;;;;;26.20;13.30;;;;;;;0.32;100.00;100536.44;52694;1255;1096958;-81
2024/01/13 07:36:55;;;;;;;32.60;16.20;;;;;;;0.34;100.00;100538.95;52604;1256;1097127;-81
2024/01/13 07:39:41;;;;;;;28.80;13.70;;;;;;;0.35;100.00;100543.43;52612;1258;1097416;-81
2024/01/13 07:42:26;;;;;;;26.20;13.90;;;;;;;0.35;100.00;100543.65;52512;1261;1097626;-80
2024/01/13 07:45:12;;;;;;;23.90;13.00;;;;;;;0.33;100.00;100542.85;52507;1260;1098214;-81
2024/01/13 07:47:58;;;;;;;32.80;15.50;;;;;;;0.34;100.00;100541.89;52441;1261;1097058;-81
2024/01/13 07:50:44;;;;;;;30.30;13.80;;;;;;;0.36;100.00;100534.50;52528;1255;1098026;-81
2024/01/13 07:53:30;;;;;;;26.20;14.00;;;;;;;0.39;100.00;100522.04;52422;1257;1098002;-81
2024/01/13 07:56:16;;;;;;;26.40;14.30;;;;;;;0.40;100.00;100536.15;52607;1260;1096971;-81
2024/01/13 07:59:03;;;;;;;30.50;13.10;;;;;;;0.39;100.00;100528.66;52676;1257;1098204;-80
2024/01/13 08:01:49;;;;;;;25.70;12.50;;;;;;;0.42;100.00;100532.67;52584;1260;1097532;-81
2024/01/13 08:04:35;;;;;;;27.80;12.80;;;;;;;0.44;100.00;100531.24;52377;1258;1097390;-81
2024/01/13 08:07:23;;;;;;;23.70;11.20;;;;;;;0.46;100.00;100526.00;52674;1260;1097381;-80
2024/01/13 08:10:09;;;;;;;28.70;14.00;;;;;;;0.51;100.00;100522.80;52414;1257;1097269;-80
2024/01/13 08:12:55;;;;;;;25.10;12.20;;;;;;;0.52;100.00;100525.15;52523;1255;1096980;-81
2024/01/13 08:15:41;;;;;;;24.90;12.40;;;;;;;0.54;100.00;100525.88;52654;1257;1097449;-80
2024/01/13 08:18:27;;;;;;;26.20;12.30;;;;;;;0.53;100.00;100524.17;52612;1260;1097181;-81
2024/01/13 08:21:12;;;;;;;30.20;13.30;;;;;;;0.52;100.00;100526.21;52444;1257;1096570;-81
2024/01/13 08:23:58;;;;;;;29.40;13.70;;;;;;;0.50;100.00;100523.93;52550;1264;1097752;-80
2024/01/13 08:26:44;;;;;;;26.70;13.80;;;;;;;0.47;100.00;100523.30;52721;1255;1097005;-80
2024/01/13 08:29:29;;;;;;;29.50;14.30;;;;;;;0.45;100.00;100522.20;52711;1255;1097683;-80
2024/01/13 08:32:15;;;;;;;28.40;14.70;;;;;;;0.46;100.00;100519.13;52588;1257;1097426;-80
2024/01/13 08:35:00;;;;;;;32.50;15.10;;;;;;;0.46;100.00;100526.15;52327;1255;1097504;-80
2024/01/13 08:37:47;;;;;;;26.90;13.40;;;;;;;0.45;100.00;100523.57;52277;1260;1097459;-79
2024/01/13 08:40:33;;;;;;;29.80;13.80;;;;;;;0.45;100.00;100521.12;52105;1261;1097037;-79
2024/01/13 08:43:18;;;;;;;36.50;19.10;;;;;;;0.44;100.00;100528.58;52224;1260;1096946;-81
2024/01/13 08:46:03;;;;;;;32.50;15.90;;;;;;;0.47;100.00;100531.56;52254;1261;1096561;-79
2024/01/13 08:48:49;;;;;;;31.60;14.70;;;;;;;0.46;100.00;100530.37;52410;1257;1097600;-81
2024/01/13 08:51:35;;;;;;;31.20;14.50;;;;;;;0.49;100.00;100531.70;52551;1255;1097172;-81
2024/01/13 08:54:23;;;;;;;36.20;17.80;;;;;;;0.52;100.00;100535.48;52596;1258;1097108;-80
2024/01/13 08:57:08;;;;;;;33.10;15.60;;;;;;;0.54;100.00;100532.19;52479;1260;1097121;-81
2024/01/13 08:59:54;;;;;;;30.30;14.90;;;;;;;0.54;100.00;100524.13;52477;1255;1097290;-81
2024/01/13 09:02:42;;;;;;;31.70;15.80;;;;;;;0.53;100.00;100522.29;52623;1258;1097465;-80
2024/01/13 09:05:28;;;;;;;32.40;17.00;;;;;;;0.53;100.00;100518.53;52405;1260;1096697;-80
2024/01/13 09:08:14;;;;;;;31.40;16.50;;;;;;;0.52;100.00;100509.02;52439;1256;1097443;-80
2024/01/13 09:10:59;;;;;;;28.50;14.90;;;;;;;0.50;100.00;100508.97;52738;1257;1097353;-79
2024/01/13 09:13:45;;;;;;;30.90;14.30;;;;;;;0.50;100.00;100510.38;52575;1260;1096829;-81
2024/01/13 09:16:31;;;;;;;35.40;16.00;;;;;;;0.51;100.00;100516.46;52560;1260;1096645;-81
2024/01/13 09:19:17;;;;;;;36.20;16.10;;;;;;;0.54;100.00;100511.29;52502;1258;1097396;-80
2024/01/13 09:22:03;;;;;;;31.50;15.90;;;;;;;0.52;100.00;100508.59;52443;1260;1097242;-80
2024/01/13 09:24:48;;;;;;;33.60;16.40;;;;;;;0.51;100.00;100509.75;52525;1259;1098799;-81
2024/01/13 09:27:34;;;;;;;30.80;16.30;;;;;;;0.49;100.00;100501.50;52383;1258;1096829;-80
2024/01/13 09:30:21;;;;;;;41.30;21.80;;;;;;;0.48;100.00;100495.96;52469;1258;1097660;-80
2024/01/13 09:33:08;;;;;;;37.60;18.80;;;;;;;0.45;100.00;100502.40;52294;1258;1097088;-80
2024/01/13 09:35:54;;;;;;;39.00;20.10;;;;;;;0.47;100.00;100490.10;52463;1258;1097226;-81
2024/01/13 09:38:39;;;;;;;32.50;17.10;;;;;;;0.50;100.00;100489.63;52557;1261;1096815;-80
2024/01/13 09:41:25;;;;;;;32.40;17.20;;;;;;;0.50;100.00;100486.30;52345;1261;1097285;-80
2024/01/13 09:44:22;;;;;;;34.60;17.60;;;;;;;0.46;100.00;100481.16;52353;1258;1097542;-80
2024/01/13 09:47:09;;;;;;;40.00;17.30;;;;;;;0.45;100.00;100473.02;52325;1258;1096902;-80
2024/01/13 09:49:55;;;;;;;31.80;17.10;;;;;;;0.44;100.00;100470.64;52261;1259;1096674;-81
2024/01/13 09:52:43;;;;;;;35.30;16.60;;;;;;;0.44;100.00;100472.08;52537;1260;1096556;-79
2024/01/13 09:55:32;;;;;;;41.20;19.80;;;;;;;0.44;100.00;100467.49;52483;1263;1097981;-80
2024/01/13 09:58:18;;;;;;;42.10;20.90;;;;;;;0.46;100.00;100457.80;52370;1261;1097783;-81
2024/01/13 10:01:06;;;;;;;31.90;17.10;;;;;;;0.46;100.00;100456.98;52727;1256;1097307;-80
2024/01/13 10:03:53;;;;;;;34.10;16.20;;;;;;;0.41;100.00;100456.65;52659;1261;1096639;-81
2024/01/13 10:06:39;;;;;;;32.80;15.90;;;;;;;0.37;100.00;100455.82;52619;1258;1096780;-80
2024/01/13 10:09:25;;;;;;;29.60;15.00;;;;;;;0.37;100.00;100454.23;52673;1260;1098488;-81
2024/01/13 10:12:11;;;;;;;25.80;13.90;;;;;;;0.38;100.00;100461.54;52588;1261;1097077;-80
2024/01/13 10:14:56;;;;;;;34.00;15.80;;;;;;;0.37;100.00;100458.59;52373;1260;1096693;-80
2024/01/13 10:17:43;;;;;;;25.20;13.30;;;;;;;0.40;100.00;100466.91;52334;1261;1096972;-80
2024/01/13 10:20:29;;;;;;;46.20;20.50;;;;;;;0.44;100.00;100462.55;52395;1261;1097060;-79
2024/01/13 10:23:14;;;;;;;37.00;16.90;;;;;;;0.50;100.00;100453.98;52349;1261;1096607;-79
2024/01/13 10:26:00;;;;;;;32.80;16.60;;;;;;;0.65;100.00;100440.65;52349;1261;1096704;-79
2024/01/13 10:28:46;;;;;;;30.90;16.00;;;;;;;0.67;100.00;100433.25;52433;1260;1097463;-80
2024/01/13 10:31:32;;;;;;;30.10;15.30;;;;;;;0.61;100.00;100430.44;52405;1257;1096748;-80
2024/01/13 10:34:21;;;;;;;31.00;16.20;;;;;;;0.58;100.00;100424.89;52439;1260;1097074;-80
2024/01/13 10:37:09;;;;;;;27.80;15.80;;;;;;;0.58;100.00;100419.42;52564;1257;1097169;-81
2024/01/13 10:39:56;;;;;;;35.20;16.30;;;;;;;0.57;100.00;100412.66;53064;1260;1097184;-81
2024/01/13 10:42:46;;;;;;;29.70;15.60;;;;;;;0.53;100.00;100401.77;52670;1260;1097822;-80
2024/01/13 10:45:36;;;;;;;30.00;15.50;;;;;;;0.49;100.00;100394.52;52661;1257;1097387;-81
2024/01/13 10:48:41;;;;;;;33.10;17.80;;;;;;;0.45;100.00;100383.77;52541;1261;1096802;-80
2024/01/13 10:51:42;;;;;;;33.30;17.30;;;;;;;0.42;100.00;100367.50;52601;1260;1098662;-80
2024/01/13 10:54:29;;;;;;;57.70;25.20;;;;;;;0.41;100.00;100359.77;52478;1261;1098608;-81
2024/01/13 10:57:15;;;;;;;33.70;20.40;;;;;;;0.40;100.00;100358.77;52515;1257;1096899;-81
2024/01/13 11:00:02;;;;;;;49.20;24.20;;;;;;;0.39;100.00;100355.98;52736;1257;1097634;-81
2024/01/13 11:02:50;;;;;;;53.70;28.60;;;;;;;0.40;100.00;100347.34;52515;1257;1096835;-81
2024/01/13 11:05:39;;;;;;;37.10;22.30;;;;;;;0.41;100.00;100350.35;52315;1261;1097131;-80
2024/01/13 11:08:25;;;;;;;38.20;21.30;;;;;;;0.45;100.00;100354.87;52628;1261;1097346;-80
2024/01/13 11:11:17;;;;;;;42.70;22.40;;;;;;;0.46;100.00;100353.29;52459;1264;1096973;-80
2024/01/13 11:14:07;;;;;;;38.40;20.70;;;;;;;0.45;100.00;100350.55;52635;1255;1097081;-81
2024/01/13 11:16:56;;;;;;;41.90;21.90;;;;;;;0.44;100.00;100344.33;52492;1260;1097229;-80
2024/01/13 11:19:41;;;;;;;43.50;20.40;;;;;;;0.41;100.00;100335.32;52606;1257;1096619;-81
2024/01/13 11:22:35;;;;;;;39.70;21.20;;;;;;;0.39;100.00;100337.77;52472;1261;1097323;-81
2024/01/13 11:25:25;;;;;;;29.10;15.20;;;;;;;0.39;100.00;100344.30;52649;1257;1098688;-81
2024/01/13 11:28:13;;;;;;;29.10;16.00;;;;;;;0.38;100.00;100336.27;52545;1258;1098483;-80
2024/01/13 11:31:00;;;;;;;27.00;15.70;;;;;;;0.35;100.00;100335.34;52277;1260;1097972;-80
2024/01/13 11:33:46;;;;;;;37.60;19.80;;;;;;;0.31;100.00;100333.31;52452;1264;1097107;-80
2024/01/13 11:36:33;;;;;;;40.00;20.20;;;;;;;0.31;100.00;100325.24;52627;1258;1098560;-81
2024/01/13 11:39:20;;;;;;;39.10;20.20;;;;;;;0.29;100.00;100314.52;52521;1261;1097502;-81
2024/01/13 11:42:06;;;;;;;46.10;22.80;;;;;;;0.27;100.00;100312.60;52486;1257;1097324;-81
2024/01/13 11:44:52;;;;;;;39.00;21.70;;;;;;;0.28;100.00;100302.17;52674;1257;1097302;-81
2024/01/13 11:47:37;;;;;;;38.00;19.80;;;;;;;0.29;100.00;100297.90;52516;1258;1097375;-80
2024/01/13 11:50:35;;;;;;;34.40;17.90;;;;;;;0.29;100.00;100282.92;52571;1258;1097226;-79
2024/01/13 11:53:40;;;;;;;35.70;17.50;;;;;;;0.28;100.00;100282.14;52322;1261;1097956;-81
2024/01/13 11:56:26;;;;;;;33.10;18.10;;;;;;;0.27;100.00;100277.89;52699;1258;1097690;-80
2024/01/13 11:59:12;;;;;;;39.50;19.50;;;;;;;0.28;100.00;100278.14;52680;1260;1097158;-80
2024/01/13 12:01:59;;;;;;;36.60;19.70;;;;;;;0.30;100.00;100272.49;52581;1256;1097518;-81
2024/01/13 12:04:49;;;;;;;44.90;25.40;;;;;;;0.32;100.00;100263.38;52620;1256;1097208;-80
2024/01/13 12:07:35;;;;;;;41.60;19.60;;;;;;;0.34;100.00;100265.16;52405;1261;1096778;-80
2024/01/13 12:10:21;;;;;;;36.10;19.40;;;;;;;0.32;100.00;100248.63;52568;1261;1097786;-81
2024/01/13 12:13:17;;;;;;;33.60;18.10;;;;;;;0.31;100.00;100243.94;52441;1263;1097156;-80
2024/01/13 12:16:08;;;;;;;31.40;17.50;;;;;;;0.32;100.00;100226.69;52362;1261;1096992;-81
2024/01/13 12:18:54;;;;;;;37.30;16.30;;;;;;;0.33;100.00;100214.30;52641;1255;1097422;-80
2024/01/13 12:21:40;;;;;;;36.10;18.10;;;;;;;0.34;100.00;100204.19;52349;1256;1097371;-81